Weather at El Dorado Substation Heliport

Public forecast

Using degrees Fahrenheit for public forecast. Weather courtesy of forecast.io.

Closest aviation weather report (METAR) to El Dorado Substation Heliport

Closest report is Henderson Executive Airport, 12.3 nm (22.8 km) NNW.

2024/05/25 09:56 (retrieved 37 minutes ago)

KHND 250956Z AUTO 22020KT 10SM CLR 18/02 A2968 RMK AO2 PK WND 23027/0926 SLP043 T01830022

Closest aviation forecast (TAF) to El Dorado Substation Heliport

Closest forecast is Henderson Executive Airport, 12.3 nm (22.8 km) NNW.

2024/05/25 06:22 (retrieved 4 hours ago)

TAF KHND 250520Z 2506/2606 21015G25KT P6SM FEW200 FM251300 21010G18KT P6SM SKC FM251900 22014G22KT P6SM FEW150 FM260300 19011KT P6SM SKC